Time;durP1;ratioP1;P1;durP2;ratioP2;P2;SDS_P1;SDS_P2;PMS_P1;PMS_P2;Temp;Humidity;BMP_temperature;BMP_pressure;BME280_temperature;BME280_humidity;BME280_pressure;Samples;Min_cycle;Max_cycle;Signal;HPM_P1;HPM_P2
2022/05/29 00:11:12;;;;;;;;;;;;;;;;;;;;;
2022/05/29 07:18:38;;;;;;;9.35;2.08;;;11.30;75.70;;;;;;6159082;23;20083;-74
2022/05/29 07:21:09;;;;;;;9.35;1.50;;;11.30;76.30;;;;;;6189550;23;20013;-78
2022/05/29 07:24:46;;;;;;;9.13;1.58;;;11.40;75.70;;;;;;6160084;23;20009;-77
2022/05/29 07:27:23;;;;;;;6.35;1.83;;;11.50;74.90;;;;;;5958124;24;20373;-78
2022/05/29 07:29:49;;;;;;;7.35;1.67;;;11.60;75.10;;;;;;5981335;24;20114;-73
2022/05/29 08:31:04;;;;;;;14.15;1.90;;;11.40;79.10;;;;;;6148225;23;20024;-75
2022/05/29 08:33:38;;;;;;;12.20;1.95;;;11.40;78.70;;;;;;6160091;23;20015;-74
2022/05/29 08:36:06;;;;;;;6.57;1.35;;;11.40;79.40;;;;;;6159705;23;20391;-69
2022/05/29 08:38:46;;;;;;;14.32;2.35;;;11.50;79.80;;;;;;6158036;23;20013;-74
2022/05/29 08:41:23;;;;;;;14.48;2.05;;;11.50;78.40;;;;;;6158843;23;20013;-76
2022/05/29 08:44:04;;;;;;;17.95;1.80;;;11.70;79.50;;;;;;6159245;23;20381;-76
2022/05/29 08:46:43;;;;;;;9.20;2.17;;;11.80;78.60;;;;;;6158584;23;20013;-76
2022/05/29 08:49:15;;;;;;;12.80;2.00;;;11.90;77.20;;;;;;6159188;23;20057;-76
2022/05/29 08:52:13;;;;;;;13.45;2.15;;;11.80;76.50;;;;;;6159589;23;20067;-75
2022/05/29 08:55:08;;;;;;;9.02;2.08;;;11.90;77.40;;;;;;6158610;23;20017;-78
2022/05/29 08:58:01;;;;;;;9.20;2.20;;;11.90;74.90;;;;;;6157920;23;20048;-78
2022/05/29 09:01:04;;;;;;;13.35;2.50;;;11.90;75.70;;;;;;6159096;23;20381;-78
2022/05/29 09:03:54;;;;;;;11.30;1.90;;;12.10;77.40;;;;;;6158783;23;20095;-79
2022/05/29 09:07:06;;;;;;;13.00;2.97;;;12.30;76.80;;;;;;6159725;23;20009;-78
2022/05/29 09:09:44;;;;;;;21.38;3.08;;;12.40;75.60;;;;;;6041824;23;20107;-77
2022/05/29 09:13:02;;;;;;;;;;;;;;;;;;;;;
2022/05/29 09:15:41;;;;;;;14.10;2.45;;;11.90;77.80;;;;;;6042007;23;20358;-72
2022/05/29 09:18:13;;;;;;;5.70;1.60;;;11.80;79.30;;;;;;6065467;23;20011;-70
2022/05/29 09:27:48;;;;;;;10.93;1.65;;;11.60;75.60;;;;;;6116227;23;20372;-75
2022/05/29 09:30:19;;;;;;;8.32;1.67;;;11.60;76.80;;;;;;6160263;23;20013;-73
2022/05/29 09:32:55;;;;;;;9.05;1.70;;;11.70;76.50;;;;;;6160749;23;20367;-72
2022/05/29 09:39:48;;;;;;;11.43;1.95;;;11.90;75.60;;;;;;6158254;23;20339;-73
2022/05/29 09:42:20;;;;;;;;;;;12.10;77.30;;;;;;6160897;23;20009;-74
2022/05/29 09:45:35;;;;;;;8.52;1.73;;;12.10;76.30;;;;;;6160512;23;19912;-74
2022/05/29 09:51:42;;;;;;;10.07;1.67;;;12.00;76.30;;;;;;6137026;23;20016;-79
2022/05/29 09:54:40;;;;;;;7.82;1.45;;;11.70;76.00;;;;;;6160848;23;20017;-82
2022/05/29 09:57:23;;;;;;;8.40;1.50;;;11.50;75.00;;;;;;6160836;23;20501;-80
2022/05/29 10:10:47;;;;;;;11.07;2.45;;;11.70;75.40;;;;;;6188413;23;20099;-74
2022/05/29 10:14:06;;;;;;;;;;;;;;;;;;;;;
2022/05/29 10:16:43;;;;;;;5.93;1.40;;;12.00;75.40;;;;;;6215192;23;20012;-70
2022/05/29 10:19:36;;;;;;;6.32;1.10;;;12.20;74.30;;;;;;6213567;23;20036;-71
2022/05/29 10:22:45;;;;;;;7.60;1.63;;;12.40;72.20;;;;;;6188547;23;20008;-73
2022/05/29 10:26:17;;;;;;;12.52;2.05;;;12.70;72.70;;;;;;6165172;23;20047;-77
2022/05/29 10:28:54;;;;;;;9.25;1.50;;;12.90;72.30;;;;;;6187747;23;20009;-77
2022/05/29 10:39:31;;;;;;;;;;;;;;;;;;;;;
2022/05/29 10:53:06;;;;;;;6.03;1.83;;;12.10;78.50;;;;;;6123343;23;20037;-77
2022/05/29 10:56:03;;;;;;;15.02;2.13;;;11.90;80.30;;;;;;6103510;23;20039;-78
2022/05/29 10:59:41;;;;;;;10.32;1.88;;;11.70;81.50;;;;;;6163712;23;20058;-81
2022/05/29 11:06:15;;;;;;;10.60;1.70;;;11.70;79.00;;;;;;6157189;23;20017;-78
2022/05/29 11:13:20;;;;;;;;;;;;;;;;;;;;;
2022/05/29 11:20:08;;;;;;;12.05;1.75;;;12.40;70.50;;;;;;6157357;23;20013;-75
2022/05/29 11:26:10;;;;;;;14.02;1.90;;;12.80;70.10;;;;;;6137794;23;20104;-76
2022/05/29 11:29:16;;;;;;;15.60;2.75;;;13.00;70.20;;;;;;6134609;23;20020;-79
2022/05/29 11:32:03;;;;;;;14.65;2.42;;;13.10;70.30;;;;;;6133678;23;20013;-79
2022/05/29 11:43:35;;;;;;;10.50;1.48;;;12.70;72.30;;;;;;5949082;24;20056;-70
2022/05/29 11:52:49;;;;;;;10.25;1.90;;;12.00;74.70;;;;;;6039924;23;19940;-72
2022/05/29 11:55:49;;;;;;;11.67;1.57;;;12.10;75.90;;;;;;6100085;23;20394;-78
2022/05/29 11:58:37;;;;;;;10.98;1.50;;;12.20;73.90;;;;;;6128629;23;20269;-72
2022/05/29 12:01:21;;;;;;;9.02;1.92;;;12.20;74.10;;;;;;6152245;23;20017;-71
2022/05/29 12:03:53;;;;;;;13.65;2.15;;;12.40;75.10;;;;;;6128204;23;20265;-70
2022/05/29 12:06:35;;;;;;;11.05;1.92;;;12.40;74.70;;;;;;6128415;23;20017;-73
2022/05/29 12:09:20;;;;;;;7.85;1.40;;;12.50;73.50;;;;;;6153062;23;20375;-76
2022/05/29 12:12:23;;;;;;;8.35;1.90;;;12.60;72.20;;;;;;6152276;23;20385;-73
2022/05/29 12:15:29;;;;;;;9.95;1.60;;;12.70;73.20;;;;;;6127891;23;20020;-75
2022/05/29 12:17:56;;;;;;;13.77;2.03;;;12.90;70.50;;;;;;6128313;23;20016;-73
2022/05/29 12:20:59;;;;;;;11.07;1.58;;;12.90;70.80;;;;;;6154471;23;20006;-73
2022/05/29 12:23:25;;;;;;;13.77;1.95;;;12.70;71.10;;;;;;6019356;23;20010;-72
2022/05/29 12:26:41;;;;;;;;;;;;;;;;;;;;;
2022/05/29 12:37:04;;;;;;;7.30;1.60;;;12.90;71.80;;;;;;6153392;23;20009;-74
2022/05/29 12:44:09;;;;;;;8.10;1.60;;;13.00;68.50;;;;;;6067560;23;20034;-75
2022/05/29 12:51:16;;;;;;;;;;;;;;;;;;;;;
2022/05/29 13:02:15;;;;;;;11.77;1.65;;;14.00;65.40;;;;;;5923391;24;20073;-76
2022/05/29 13:16:17;;;;;;;11.07;2.20;;;13.70;66.70;;;;;;6008673;23;20500;-74
2022/05/29 13:19:21;;;;;;;8.63;1.70;;;13.50;64.80;;;;;;5985036;23;20111;-75
2022/05/29 13:22:05;;;;;;;12.02;1.80;;;13.30;66.40;;;;;;6044179;23;20046;-73
2022/05/29 13:24:36;;;;;;;10.75;2.00;;;13.30;66.70;;;;;;6070351;23;20095;-71
2022/05/29 13:27:13;;;;;;;8.15;2.13;;;13.30;65.40;;;;;;6070601;23;20014;-73
2022/05/29 13:29:43;;;;;;;10.68;1.85;;;13.10;65.10;;;;;;6045931;23;20046;-71
2022/05/29 13:36:30;;;;;;;17.02;2.50;;;13.20;67.90;;;;;;6117414;23;20017;-81
2022/05/29 13:40:05;;;;;;;11.85;2.22;;;13.30;67.90;;;;;;6062718;23;20010;-72
2022/05/29 13:47:09;;;;;;;;;;;;;;;;;;;;;
2022/05/29 13:54:42;;;;;;;8.40;1.80;;;13.40;65.50;;;;;;6092006;23;20018;-76
2022/05/29 14:09:14;;;;;;;9.35;2.00;;;14.20;64.40;;;;;;5970867;24;20292;-77
2022/05/29 14:49:31;;;;;;;20.95;2.35;;;13.10;64.90;;;;;;5897055;24;20479;-75
2022/05/29 15:39:00;;;;;;;14.73;2.22;;;13.00;70.20;;;;;;6181323;22;1685999;-73
2022/05/29 15:45:50;;;;;;;13.27;2.00;;;12.80;68.70;;;;;;6128145;23;20047;-72
2022/05/29 15:48:31;;;;;;;13.38;2.92;;;12.70;70.70;;;;;;6167962;23;20009;-76
2022/05/29 15:51:08;;;;;;;16.13;2.80;;;12.60;70.40;;;;;;6193763;23;20008;-68
2022/05/29 15:53:41;;;;;;;16.75;2.78;;;12.50;70.10;;;;;;6192644;23;20305;-67
2022/05/29 15:56:15;;;;;;;16.00;2.40;;;12.40;70.10;;;;;;6194286;23;20012;-67
2022/05/29 15:59:23;;;;;;;11.75;2.17;;;12.20;71.00;;;;;;6192715;23;20017;-68
2022/05/29 16:01:55;;;;;;;14.07;2.10;;;12.20;69.50;;;;;;6192282;23;20013;-67
2022/05/29 16:05:12;;;;;;;10.00;2.00;;;12.00;69.40;;;;;;6194036;23;20016;-67
2022/05/29 16:07:40;;;;;;;17.48;2.65;;;12.10;68.30;;;;;;6143700;23;20359;-67
2022/05/29 16:10:28;;;;;;;12.82;2.22;;;12.00;69.20;;;;;;6187423;23;20013;-70
2022/05/29 16:12:59;;;;;;;18.60;2.40;;;12.00;69.20;;;;;;6185535;23;20048;-70
2022/05/29 16:15:33;;;;;;;12.52;2.80;;;11.90;69.70;;;;;;6187510;23;20024;-71
2022/05/29 16:18:25;;;;;;;13.88;2.10;;;11.90;69.60;;;;;;6161168;23;20017;-73
2022/05/29 16:21:33;;;;;;;13.75;2.33;;;11.90;70.10;;;;;;6185683;23;20031;-70
2022/05/29 16:24:22;;;;;;;13.05;2.15;;;11.90;70.70;;;;;;6160122;23;20013;-71
2022/05/29 16:35:03;;;;;;;9.20;1.85;;;11.80;69.50;;;;;;5952293;24;19910;-74
2022/05/29 16:48:53;;;;;;;9.60;1.88;;;12.00;70.30;;;;;;6011784;23;20011;-72
2022/05/29 16:54:42;;;;;;;12.35;2.40;;;11.80;69.60;;;;;;5964711;23;20484;-67
2022/05/29 16:57:10;;;;;;;14.57;2.40;;;11.80;69.80;;;;;;6159139;23;20087;-69
2022/05/29 16:59:43;;;;;;;16.70;2.83;;;11.80;69.30;;;;;;6159553;23;20432;-69
2022/05/29 17:02:11;;;;;;;17.27;2.45;;;11.70;69.50;;;;;;6186423;23;20017;-67
2022/05/29 17:04:51;;;;;;;17.63;2.58;;;11.80;69.80;;;;;;6184655;23;20024;-66
2022/05/29 17:07:30;;;;;;;13.82;2.58;;;11.80;70.30;;;;;;6184438;23;20048;-70
2022/05/29 17:12:42;;;;;;;16.90;2.60;;;11.90;70.70;;;;;;6184794;23;20336;-71
2022/05/29 17:15:09;;;;;;;11.90;3.00;;;11.90;70.00;;;;;;6134600;23;20009;-67
2022/05/29 17:17:36;;;;;;;16.63;2.72;;;11.90;70.30;;;;;;6184176;23;20458;-68
2022/05/29 17:20:03;;;;;;;11.93;2.70;;;11.90;70.10;;;;;;6184044;23;20009;-67
2022/05/29 17:22:37;;;;;;;7.72;1.70;;;11.80;69.20;;;;;;6158925;23;20013;-68
2022/05/29 17:25:21;;;;;;;8.05;2.20;;;11.70;67.00;;;;;;6186632;23;20024;-65
2022/05/29 17:28:07;;;;;;;11.57;2.08;;;11.80;65.70;;;;;;6159685;23;20323;-67
2022/05/29 17:30:39;;;;;;;8.77;1.90;;;11.70;67.20;;;;;;6159974;23;20051;-67
2022/05/29 17:33:19;;;;;;;14.90;1.98;;;11.60;67.00;;;;;;6159667;23;20020;-67
2022/05/29 17:35:48;;;;;;;15.70;3.10;;;11.60;68.10;;;;;;6159616;23;20013;-67
2022/05/29 17:38:19;;;;;;;16.08;2.33;;;11.50;68.90;;;;;;6208952;23;20013;-67
2022/05/29 17:40:51;;;;;;;15.50;2.50;;;11.50;69.40;;;;;;6186139;23;20019;-67
2022/05/29 17:43:17;;;;;;;15.63;2.30;;;11.60;69.90;;;;;;6159408;23;20055;-67
2022/05/29 17:46:03;;;;;;;11.80;2.40;;;11.50;70.90;;;;;;6159474;23;20013;-68
2022/05/29 17:49:48;;;;;;;15.93;2.10;;;11.60;71.90;;;;;;6184023;23;20020;-71
2022/05/29 17:52:11;;;;;;;12.27;1.90;;;11.40;72.60;;;;;;6178757;23;20721;-68
2022/05/29 17:54:54;;;;;;;14.40;2.47;;;11.40;74.00;;;;;;6159371;23;20016;-73
2022/05/29 17:57:41;;;;;;;;;;;;;;;;;;;;;
2022/05/29 18:00:46;;;;;;;13.15;2.80;;;11.20;74.90;;;;;;6183409;23;20468;-74
2022/05/29 18:03:25;;;;;;;15.18;2.42;;;11.30;75.10;;;;;;6134769;23;20032;-73
2022/05/29 18:28:12;;;;;;;13.82;2.50;;;11.20;71.70;;;;;;6183797;23;20047;-76
2022/05/29 18:30:38;;;;;;;12.80;2.60;;;11.20;72.90;;;;;;6158947;23;20036;-72
2022/05/29 18:33:07;;;;;;;19.05;2.17;;;11.20;73.50;;;;;;6159040;23;20009;-72
2022/05/29 18:35:33;;;;;;;13.63;3.22;;;11.10;73.60;;;;;;6157412;23;20020;-71
2022/05/29 18:37:59;;;;;;;14.13;2.20;;;11.30;74.00;;;;;;6134756;23;20017;-71
2022/05/29 18:40:25;;;;;;;16.35;2.10;;;11.10;74.10;;;;;;6184103;23;20009;-71
2022/05/29 18:42:51;;;;;;;14.43;2.45;;;11.00;73.50;;;;;;6159312;23;20020;-72
2022/05/29 18:45:17;;;;;;;;;;;11.00;73.50;;;;;;6185972;23;20009;-71
2022/05/29 18:47:43;;;;;;;14.88;1.88;;;11.00;73.30;;;;;;6158315;23;20301;-72
2022/05/29 18:50:10;;;;;;;11.48;2.13;;;10.90;73.10;;;;;;6158854;23;20017;-71
2022/05/29 18:52:36;;;;;;;10.00;2.00;;;10.90;72.60;;;;;;6158912;23;20009;-71
2022/05/29 18:55:03;;;;;;;8.10;1.85;;;10.90;72.80;;;;;;6184442;23;20013;-72
2022/05/29 18:57:29;;;;;;;11.15;2.00;;;10.80;72.30;;;;;;6135137;23;20435;-71
2022/05/29 18:59:59;;;;;;;7.60;1.85;;;10.80;72.40;;;;;;6184557;23;20009;-72
2022/05/29 19:02:27;;;;;;;9.90;1.58;;;10.80;72.20;;;;;;6159292;23;20016;-72
2022/05/29 19:04:52;;;;;;;9.88;2.03;;;10.80;71.80;;;;;;6134646;23;20017;-71
2022/05/29 19:07:18;;;;;;;10.20;2.00;;;10.70;71.80;;;;;;6134851;23;20020;-72
2022/05/29 19:09:44;;;;;;;6.30;1.67;;;10.70;71.70;;;;;;6159230;23;20702;-72
2022/05/29 19:12:10;;;;;;;9.57;1.37;;;10.70;70.90;;;;;;6184210;23;20547;-72
2022/05/29 19:14:37;;;;;;;7.15;1.40;;;10.70;70.60;;;;;;6184319;23;20247;-72
2022/05/29 19:18:09;;;;;;;7.82;1.52;;;10.60;71.00;;;;;;6158426;23;20024;-72
2022/05/29 19:19:49;;;;;;;15.83;1.80;;;10.50;71.00;;;;;;6159751;23;20048;-71
2022/05/29 19:22:15;;;;;;;14.60;2.20;;;10.50;71.60;;;;;;6185931;23;20013;-72
2022/05/29 19:24:41;;;;;;;6.47;1.60;;;10.40;71.70;;;;;;6159606;23;20013;-72
2022/05/29 19:27:07;;;;;;;11.00;2.35;;;10.30;72.10;;;;;;6134710;23;20083;-71
2022/05/29 19:29:33;;;;;;;14.25;1.98;;;10.20;73.00;;;;;;6159383;23;20463;-71
2022/05/29 19:32:00;;;;;;;7.78;1.80;;;10.10;73.00;;;;;;6134878;23;20081;-71
2022/05/29 19:34:26;;;;;;;9.25;1.70;;;10.00;73.90;;;;;;6183494;23;20012;-72
2022/05/29 19:36:51;;;;;;;13.80;1.52;;;10.00;73.60;;;;;;6134542;23;20092;-72
2022/05/29 19:39:17;;;;;;;8.38;1.65;;;9.90;74.00;;;;;;6134648;23;20009;-71
2022/05/29 19:41:43;;;;;;;13.02;2.20;;;9.80;74.60;;;;;;6184523;23;20013;-71
2022/05/29 19:44:12;;;;;;;10.25;2.13;;;9.80;75.80;;;;;;6159031;23;20444;-72
2022/05/29 19:46:37;;;;;;;10.38;2.05;;;9.90;76.10;;;;;;6187444;23;20459;-72
2022/05/29 19:49:03;;;;;;;15.83;2.77;;;9.80;77.70;;;;;;6186283;23;20017;-71
2022/05/29 19:51:30;;;;;;;12.95;2.00;;;9.70;78.80;;;;;;6161468;23;20316;-72
2022/05/29 19:53:56;;;;;;;10.95;1.90;;;9.70;79.00;;;;;;6159961;23;20472;-72
2022/05/29 19:56:25;;;;;;;12.40;1.90;;;9.80;79.50;;;;;;6184858;23;20140;-72
2022/05/29 19:58:52;;;;;;;12.57;2.00;;;9.80;79.40;;;;;;6159735;23;20016;-71
2022/05/29 20:01:33;;;;;;;11.60;2.28;;;9.80;80.10;;;;;;6160198;23;20484;-74
2022/05/29 20:03:58;;;;;;;10.65;1.75;;;9.70;80.70;;;;;;6159833;23;20024;-72
2022/05/29 20:06:32;;;;;;;11.57;2.53;;;9.60;80.60;;;;;;6135428;23;20005;-73
2022/05/29 20:08:59;;;;;;;10.23;2.03;;;9.60;81.10;;;;;;6185160;23;20315;-74
2022/05/29 20:11:31;;;;;;;13.70;1.95;;;9.60;81.20;;;;;;6160656;23;20420;-73
2022/05/29 20:13:59;;;;;;;9.02;1.83;;;9.50;81.70;;;;;;6160147;23;20020;-72
2022/05/29 20:16:27;;;;;;;12.20;2.55;;;9.40;81.30;;;;;;6185062;23;20009;-73
2022/05/29 20:18:57;;;;;;;8.88;1.73;;;9.30;81.80;;;;;;6135605;23;20115;-71
2022/05/29 20:21:26;;;;;;;8.25;2.15;;;9.20;82.60;;;;;;6160560;23;20091;-71
2022/05/29 20:23:54;;;;;;;8.52;1.73;;;9.10;82.50;;;;;;6160111;23;20019;-72
2022/05/29 20:26:20;;;;;;;12.43;1.85;;;9.10;82.30;;;;;;6185145;23;20079;-72
2022/05/29 20:28:46;;;;;;;9.52;2.25;;;9.00;83.00;;;;;;6185173;23;20021;-72
2022/05/29 20:31:21;;;;;;;10.07;2.20;;;9.00;83.30;;;;;;6160495;23;20021;-73
2022/05/29 20:33:47;;;;;;;11.40;2.00;;;8.90;83.00;;;;;;6135544;23;20506;-71
2022/05/29 20:36:13;;;;;;;9.35;2.00;;;9.00;83.30;;;;;;6159981;23;20386;-74
2022/05/29 20:38:41;;;;;;;;;;;8.90;83.70;;;;;;6185330;23;20052;-71
2022/05/29 20:47:56;;;;;;;;;;;;;;;;;;;;;
2022/05/29 21:07:17;;;;;;;6.20;1.75;;;8.40;84.70;;;;;;6206024;22;20031;-70
2022/05/29 21:09:53;;;;;;;5.43;1.85;;;8.30;85.00;;;;;;6164781;23;20048;-70
2022/05/29 21:12:21;;;;;;;9.60;2.08;;;8.20;85.60;;;;;;6190302;23;20023;-71
2022/05/29 21:14:46;;;;;;;12.10;2.05;;;8.20;85.20;;;;;;6190094;23;20087;-71
2022/05/29 21:17:13;;;;;;;10.98;2.38;;;8.20;85.40;;;;;;6164806;23;20126;-72
2022/05/29 21:19:40;;;;;;;12.80;2.17;;;8.10;85.90;;;;;;6165144;23;20020;-71
2022/05/29 21:22:07;;;;;;;10.18;2.10;;;8.10;85.60;;;;;;6216903;23;20386;-70
2022/05/29 21:24:33;;;;;;;6.75;2.40;;;8.10;86.20;;;;;;6165329;23;20040;-71
2022/05/29 21:27:02;;;;;;;17.48;2.65;;;8.10;86.90;;;;;;6190306;23;20012;-71
2022/05/29 21:29:30;;;;;;;9.63;2.60;;;8.00;86.80;;;;;;6165485;23;20051;-71
2022/05/29 21:31:57;;;;;;;8.13;2.55;;;8.10;87.30;;;;;;6190432;23;20024;-71
2022/05/29 21:34:24;;;;;;;11.05;2.92;;;8.30;87.80;;;;;;6216524;23;20024;-71
2022/05/29 21:37:51;;;;;;;7.72;2.30;;;8.30;88.00;;;;;;6189801;23;20106;-71
2022/05/29 21:39:38;;;;;;;;;;;8.30;88.00;;;;;;6189598;23;20016;-71
2022/05/29 21:42:04;;;;;;;11.05;2.80;;;8.30;90.30;;;;;;6164574;23;19915;-72
2022/05/29 21:44:30;;;;;;;13.07;1.70;;;8.30;90.90;;;;;;6189919;23;20016;-71
2022/05/29 21:46:58;;;;;;;7.57;1.73;;;8.30;91.20;;;;;;6189298;23;20071;-72
2022/05/29 21:49:24;;;;;;;5.22;1.70;;;8.50;91.20;;;;;;6189785;23;20702;-73
2022/05/29 21:51:50;;;;;;;7.77;2.30;;;8.50;91.40;;;;;;6189416;23;20077;-72
2022/05/29 21:54:15;;;;;;;5.95;1.90;;;8.50;91.40;;;;;;6164412;23;20279;-72
2022/05/29 21:56:42;;;;;;;7.75;1.80;;;8.70;92.30;;;;;;6164741;23;20380;-70
2022/05/29 21:59:08;;;;;;;7.38;1.83;;;8.50;90.50;;;;;;6189372;23;20024;-71
2022/05/29 22:01:34;;;;;;;10.07;2.17;;;8.70;91.70;;;;;;6189727;23;20503;-71
2022/05/29 22:04:00;;;;;;;7.78;1.70;;;8.50;92.30;;;;;;6164834;23;20020;-71
2022/05/29 22:06:34;;;;;;;6.63;1.60;;;8.50;92.00;;;;;;6189382;23;20013;-71
2022/05/29 22:09:00;;;;;;;8.43;1.90;;;8.40;91.50;;;;;;6189464;23;20020;-71
2022/05/29 22:11:30;;;;;;;8.38;1.73;;;8.60;91.90;;;;;;6165104;23;20023;-70
2022/05/29 22:13:56;;;;;;;12.02;2.20;;;8.50;92.10;;;;;;6216095;23;20296;-71
2022/05/29 22:16:26;;;;;;;4.70;1.80;;;8.50;92.70;;;;;;6164647;23;20012;-72
2022/05/29 22:19:01;;;;;;;5.88;1.58;;;8.50;92.20;;;;;;6189703;23;20017;-71
2022/05/29 22:21:33;;;;;;;9.95;2.00;;;8.50;92.20;;;;;;6164978;23;20055;-71
2022/05/29 22:24:00;;;;;;;9.05;1.92;;;8.70;92.40;;;;;;6164518;23;20088;-71
2022/05/29 22:26:27;;;;;;;;;;;8.50;92.60;;;;;;6164992;23;20012;-71
2022/05/29 22:28:58;;;;;;;9.05;1.67;;;8.50;93.00;;;;;;6189277;23;19908;-71
2022/05/29 22:31:47;;;;;;;5.40;1.48;;;8.50;92.20;;;;;;6165097;23;20035;-71
2022/05/29 22:34:37;;;;;;;6.57;1.92;;;8.50;92.60;;;;;;6189343;23;20155;-71
2022/05/29 22:37:14;;;;;;;6.55;2.00;;;8.40;92.20;;;;;;6164011;23;20095;-71
2022/05/29 22:39:43;;;;;;;8.73;2.17;;;8.40;92.70;;;;;;6189550;23;20040;-70
2022/05/29 22:42:15;;;;;;;8.85;1.92;;;8.40;92.80;;;;;;6189382;23;20450;-70
2022/05/29 22:44:43;;;;;;;6.93;1.92;;;8.40;93.10;;;;;;6189047;23;20431;-71
2022/05/29 22:47:18;;;;;;;15.13;1.85;;;8.30;92.70;;;;;;6164316;23;20028;-71
2022/05/29 22:50:19;;;;;;;12.20;1.55;;;8.30;92.70;;;;;;6189314;23;20012;-71
2022/05/29 22:52:48;;;;;;;11.60;2.00;;;8.40;92.80;;;;;;6046547;23;20010;-71
2022/05/29 22:55:27;;;;;;;4.82;1.77;;;8.20;92.90;;;;;;6167959;23;20024;-71
2022/05/29 22:57:53;;;;;;;9.90;1.80;;;8.20;92.80;;;;;;6188612;23;20044;-72
2022/05/29 23:00:28;;;;;;;5.32;1.60;;;8.10;93.60;;;;;;6142349;23;20079;-71
2022/05/29 23:03:12;;;;;;;9.63;2.13;;;8.10;93.60;;;;;;6188747;23;20036;-70
2022/05/29 23:05:43;;;;;;;6.43;2.22;;;8.10;93.90;;;;;;6164279;23;20092;-71
2022/05/29 23:08:10;;;;;;;9.80;2.10;;;8.00;93.50;;;;;;6183641;23;20093;-72
2022/05/29 23:10:41;;;;;;;;;;;8.00;94.00;;;;;;6165042;23;20021;-72
2022/05/29 23:13:17;;;;;;;5.18;1.95;;;8.00;94.10;;;;;;6188948;23;20307;-71
2022/05/29 23:15:50;;;;;;;8.60;1.75;;;8.00;93.90;;;;;;6215878;23;20019;-71
2022/05/29 23:18:24;;;;;;;6.97;2.10;;;8.00;93.40;;;;;;6139140;23;20013;-71
2022/05/29 23:21:04;;;;;;;8.30;2.20;;;8.00;93.90;;;;;;6166357;23;20063;-71
2022/05/29 23:23:52;;;;;;;7.38;2.10;;;8.00;94.20;;;;;;6190306;23;20024;-71
2022/05/29 23:26:25;;;;;;;5.80;2.00;;;8.10;94.00;;;;;;6166051;23;20015;-71
2022/05/29 23:28:56;;;;;;;10.45;2.00;;;8.10;93.60;;;;;;6182696;23;20436;-71
2022/05/29 23:31:39;;;;;;;9.05;2.10;;;8.20;93.60;;;;;;6190726;23;20067;-72
2022/05/29 23:37:39;;;;;;;9.60;2.55;;;8.00;93.50;;;;;;6217392;23;20023;-72
2022/05/29 23:40:15;;;;;;;6.45;2.20;;;8.10;93.50;;;;;;6190863;23;20046;-72
2022/05/29 23:42:46;;;;;;;8.65;2.38;;;8.10;93.70;;;;;;6216133;23;20013;-72
2022/05/29 23:45:35;;;;;;;10.13;2.20;;;8.10;93.80;;;;;;6166679;23;20017;-72
2022/05/29 23:48:43;;;;;;;9.98;2.30;;;8.20;93.90;;;;;;6191536;23;20008;-72
2022/05/29 23:51:42;;;;;;;11.57;2.63;;;8.10;93.40;;;;;;6117054;23;20015;-72
2022/05/29 23:54:23;;;;;;;17.15;2.95;;;8.10;94.10;;;;;;6190179;23;20062;-72
2022/05/29 23:57:21;;;;;;;6.57;2.70;;;8.20;94.80;;;;;;6215556;23;20008;-72
2022/05/29 23:59:58;;;;;;;15.68;2.70;;;8.20;94.90;;;;;;6190511;23;20066;-72
